Latest Coastal Weather Observations for Devonport Airport

IDV60701

Issued at 11:31 am EDT Friday 30 January 2015 (issued every 10 minutes, with the page automatically refreshed every 10 minutes)

About coastal observations | Map of coastal stations | Coastal observations for VIC | Marine services | Other Formats
Station Details ID: 091126 Name: DEVONPORT AIRPORT Lat: -41.17 Lon: 146.43 Height: 8.0 m
Data from the previous 72 hours. | See also: Recent months at Devonport Airport
Date/Time
EDT
Temp

°C
Wind Pressure Rain
since 9am
mm
Weather Cloud Vis
km
Sea
Height
m
Swell
Dir
 
Speed
knots
Gust
knots
hPa Trend Height
m
Period
s
Dir
30/11:30am 17.6 S 6 9 1016.1 - 0.0 - Partly cloudy 10 - - - -
30/11:00am 17.0 SSE 8 13 1016.3 - 0.0 - Cloudy 10 - - - -
30/10:30am 16.3 SE 9 13 1016.7 - 0.0 - Partly cloudy 10 - - - -
30/10:00am 16.4 SE 7 12 1016.9 - 0.0 - Cloudy 10 - - - -
30/09:30am 16.0 S 9 12 1016.9 - 0.0 - Partly cloudy 10 - - - -
30/09:00am 15.1 SSW 7 10 1017.0 - 0.0 - Mostly cloudy 10 - - - -
30/08:30am 14.6 S 8 12 1017.0 - 0.0 - Cloudy 10 - - - -
30/08:00am 14.0 S 8 11 1017.1 - 0.0 - Partly cloudy 10 - - - -
30/07:30am 12.3 S 7 9 1017.2 - 0.0 - - 10 - - - -
30/07:00am 11.6 S 6 8 1017.3 - 0.0 - - 10 - - - -
30/06:30am 11.7 SSW 5 7 1017.4 - 0.0 - Partly cloudy 10 - - - -
30/06:00am 12.0 S 5 8 1017.4 - 0.0 - Cloudy 10 - - - -
30/05:30am 11.2 SSE 5 7 1017.8 - 0.0 - Partly cloudy 10 - - - -
30/05:00am 11.2 S 5 6 1017.7 - 0.0 - Partly cloudy 10 - - - -
30/04:30am 11.4 S 3 5 1017.9 - 0.0 - - 10 - - - -
30/04:00am 11.2 SW 6 8 1017.9 - 0.0 - Partly cloudy 10 - - - -
30/03:30am 12.6 S 5 7 1018.5 - 0.0 - Partly cloudy 10 - - - -
30/03:00am 12.1 S 3 5 1018.9 - 0.0 - Mostly cloudy 10 - - - -
30/02:30am 11.7 SSE 3 4 1019.2 - 0.0 - Partly cloudy 10 - - - -
30/02:00am 12.4 SSW 5 6 1019.6 - 0.0 - Partly cloudy 10 - - - -
30/01:30am 12.2 SSE 6 8 1019.8 - 0.0 - Partly cloudy 10 - - - -
30/01:00am 12.0 SSE 6 8 1020.2 - 0.0 - Partly cloudy 10 - - - -
30/12:30am 12.1 ESE 9 12 1020.7 - 0.0 - - 10 - - - -
 
Date/Time
EDT
Temp

°C
Wind Pressure Rain
since 9am
mm
Weather Cloud Vis
km
Sea
Height
m
Swell
Dir
 
Speed
knots
Gust
knots
hPa Trend Height
m
Period
s
Dir
29/11:30pm 13.2 SE 15 20 1020.4 - 0.0 - - 10 - - - -
29/11:00pm 13.5 SE 14 18 1020.5 - 0.0 - - 10 - - - -
29/10:30pm 14.0 SE 15 19 1020.6 - 0.0 - - 10 - - - -
29/10:00pm 14.5 SE 13 19 1020.6 - 0.0 - - 10 - - - -
29/09:30pm 15.4 SE 11 15 1020.3 - 0.0 - - 10 - - - -
29/09:00pm 16.2 ESE 10 15 1020.0 - 0.0 - - 10 - - - -
29/08:30pm 17.4 SE 11 17 1019.8 - 0.0 - - 10 - - - -
29/08:00pm 18.1 SE 11 15 1019.7 - 0.0 - Partly cloudy 10 - - - -
29/07:30pm 18.3 ESE 10 15 1019.4 - 0.0 - Partly cloudy 10 - - - -
29/07:00pm 19.1 SE 10 15 1019.4 - 0.0 - Partly cloudy 10 - - - -
29/06:30pm 19.6 SE 12 18 1019.4 - 0.0 - Partly cloudy 10 - - - -
29/06:00pm 20.2 SE 14 21 1019.3 - 0.0 - Cloudy 10 - - - -
29/05:30pm 20.2 SE 15 22 1019.4 - 0.0 - Partly cloudy 10 - - - -
29/05:00pm 21.8 SE 17 25 1019.5 - 0.0 - - 10 - - - -
29/04:38pm 21.6 SE 17 27 1019.7 - 0.0 - - 10 - - - -
29/04:30pm 21.2 SE 16 23 1019.7 - 0.0 - Partly cloudy 10 - - - -
29/04:00pm 20.7 SE 16 27 1020.1 - 0.0 - Partly cloudy 10 - - - -
29/03:56pm 20.7 SE 15 27 1020.0 - 0.0 - Partly cloudy 10 - - - -
29/03:30pm 22.0 SE 15 22 1020.2 - 0.0 - Partly cloudy 10 - - - -
29/03:00pm 22.4 SE 12 21 1020.5 - 0.0 - Cloudy 10 - - - -
29/02:30pm 21.2 SSE 12 19 1020.7 - 0.0 - Partly cloudy 10 - - - -
29/02:00pm 21.9 SE 13 19 1021.0 - 0.0 - Partly cloudy 10 - - - -
29/01:30pm 21.1 SE 13 20 1021.4 - 0.0 - Partly cloudy 10 - - - -
29/01:00pm 20.4 SE 14 20 1021.7 - 0.0 - Partly cloudy 10 - - - -
29/12:30pm 21.0 SE 15 21 1022.2 - 0.0 - - 10 - - - -
29/12:00pm 19.8 SE 17 24 1022.5 - 0.0 - - 10 - - - -
29/11:30am 19.7 SSE 16 23 1022.6 - 0.0 - - 10 - - - -
29/11:00am 19.1 SE 18 23 1022.7 - 0.0 - - 10 - - - -
29/10:30am 18.2 SE 17 23 1023.0 - 0.0 - - 10 - - - -
29/10:00am 17.4 SSE 13 18 1023.1 - 0.0 - - 10 - - - -
29/09:30am 15.9 S 14 19 1023.2 - 0.0 - - 10 - - - -
29/09:00am 15.4 SSE 14 17 1023.1 - 0.2 - - 10 - - - -
29/08:30am 14.3 SSE 16 21 1022.9 - 0.2 - - 10 - - - -
29/08:00am 13.2 SSE 15 20 1022.8 - 0.2 - - 10 - - - -
29/07:30am 12.0 SSE 13 17 1022.8 - 0.2 - - 10 - - - -
29/07:00am 10.7 SSE 12 15 1022.6 - 0.2 - - 10 - - - -
29/06:30am 10.2 SE 15 19 1022.6 - 0.2 - - 10 - - - -
29/06:00am 10.1 SE 13 17 1022.4 - 0.2 - - 10 - - - -
29/05:30am 10.4 SSE 13 17 1022.2 - 0.2 - - 10 - - - -
29/05:00am 8.8 SSE 10 12 1022.2 - 0.2 - - 10 - - - -
29/04:30am 8.5 SSE 10 12 1022.2 - 0.2 - - 10 - - - -
29/04:00am 9.3 SSE 9 11 1022.4 - 0.2 - - 10 - - - -
29/03:30am 9.9 SSE 10 12 1022.6 - 0.2 - - 10 - - - -
29/03:00am 10.9 SSE 10 12 1022.8 - 0.2 - - 10 - - - -
29/02:30am 11.2 SE 11 13 1023.1 - 0.2 - - 10 - - - -
29/02:00am 10.0 SE 8 10 1023.2 - 0.2 - - 10 - - - -
29/01:30am 11.3 SSE 10 13 1023.2 - 0.2 - - 10 - - - -
29/01:00am 11.4 SSE 10 11 1023.5 - 0.2 - - 10 - - - -
29/12:30am 11.8 SE 11 15 1023.8 - 0.2 - - 10 - - - -
29/12:00am 12.4 ESE 10 13 1024.0 - 0.2 - - 10 - - - -
 
Date/Time
EDT
Temp

°C
Wind Pressure Rain
since 9am
mm
Weather Cloud Vis
km
Sea
Height
m
Swell
Dir
 
Speed
knots
Gust
knots
hPa Trend Height
m
Period
s
Dir
28/11:30pm 12.5 SE 11 14 1023.9 - 0.2 - - 10 - - - -
28/11:00pm 13.3 SE 12 17 1023.9 - 0.2 - - 10 - - - -
28/10:30pm 13.4 ESE 9 14 1023.9 - 0.2 - - 10 - - - -
28/10:00pm 13.9 ESE 10 14 1023.7 - 0.2 - - 10 - - - -
28/09:30pm 15.1 ESE 13 18 1023.5 - 0.2 - - 10 - - - -
28/09:00pm 15.5 ESE 11 16 1023.2 - 0.2 - - 10 - - - -
28/08:30pm 16.3 ESE 13 18 1022.9 - 0.2 - - 10 - - - -
28/08:00pm 17.4 ESE 15 18 1022.5 - 0.2 - Partly cloudy 10 - - - -
28/07:30pm 18.2 ESE 13 17 1022.1 - 0.2 - Partly cloudy 10 - - - -
28/07:00pm 18.8 ESE 13 18 1021.8 - 0.2 - Cloudy 10 - - - -
28/06:30pm 19.2 ESE 14 19 1021.5 - 0.2 - Cloudy 10 - - - -
28/06:00pm 19.5 ESE 13 18 1021.2 - 0.2 - Cloudy 10 - - - -
28/05:30pm 19.7 SE 11 17 1021.0 - 0.2 - Cloudy 10 - - - -
28/05:00pm 19.1 SSE 9 15 1021.1 - 0.2 - Cloudy 10 - - - -
28/04:30pm 20.8 ESE 16 23 1020.5 - 0.2 - Partly cloudy 10 - - - -
28/04:00pm 22.0 SE 16 23 1020.6 - 0.2 - Partly cloudy 10 - - - -
28/03:30pm 21.3 ESE 11 17 1020.6 - 0.2 - Partly cloudy 10 - - - -
28/03:00pm 22.4 ESE 12 22 1021.0 - 0.2 - Mostly clear 10 - - - -
28/02:30pm 21.8 SE 13 19 1021.1 - 0.2 - Partly cloudy 10 - - - -
28/02:00pm 22.8 ESE 13 21 1021.4 - 0.2 - Partly cloudy 10 - - - -
28/01:30pm 20.9 SSE 13 19 1021.8 - 0.0 - Partly cloudy 10 - - - -
28/01:00pm 21.8 SE 10 15 1021.8 - 0.0 - Partly cloudy 10 - - - -
28/12:30pm 20.9 SE 12 19 1022.0 - 0.0 - Partly cloudy 10 - - - -
28/12:00pm 20.1 ESE 9 16 1022.2 - 0.0 - Mostly clear 10 - - - -
28/11:30am 19.2 SE 11 19 1022.4 - 0.0 - - 10 - - - -
28/11:00am 19.3 SE 13 22 1022.4 - 0.0 - - 10 - - - -
28/10:30am 18.5 SSE 15 21 1022.6 - 0.0 - - 10 - - - -
28/10:00am 17.0 SSE 14 21 1022.7 - 0.0 - - 10 - - - -
28/09:30am 16.4 SE 14 18 1022.7 - 0.0 - - 10 - - - -
28/09:00am 15.5 SE 16 22 1022.6 - 0.0 - - 10 - - - -
28/08:30am 14.8 SSE 14 18 1022.5 - 0.0 - - 10 - - - -
28/08:00am 13.6 SSE 13 17 1021.9 - 0.0 - - 10 - - - -
28/07:30am 12.5 SSE 8 10 1021.7 - 0.0 - - 10 - - - -
28/07:00am 10.6 S 6 7 1021.5 - 0.0 - - 10 - - - -
28/06:30am 9.2 S 5 7 1021.1 - 0.0 - - 10 - - - -
28/06:00am 9.3 S 5 7 1021.1 - 0.0 - - 10 - - - -
28/05:30am 10.8 S 2 5 1020.8 - 0.0 - - 10 - - - -
28/05:00am 10.8 S 4 5 1020.6 - 0.0 - - 10 - - - -
28/04:30am 11.0 S 9 13 1020.3 - 0.0 - - 10 - - - -
28/04:00am 11.9 SE 12 15 1020.0 - 0.0 - - 10 - - - -
28/03:30am 12.3 SE 13 18 1020.1 - 0.0 - - 10 - - - -
28/03:00am 12.9 SE 15 17 1020.1 - 0.0 - Mostly clear 10 - - - -
28/02:30am 13.1 SE 13 17 1020.2 - 0.0 - Partly cloudy 10 - - - -
28/02:00am 13.5 SSE 13 16 1020.3 - 0.0 - Cloudy 10 - - - -
28/01:30am 14.0 SSE 12 15 1020.2 - 0.0 - Partly cloudy 10 - - - -
28/01:00am 14.2 SSE 12 14 1020.3 - 0.0 - Partly cloudy 10 - - - -
28/12:30am 14.2 SSE 9 11 1020.1 - 0.0 - Partly cloudy 10 - - - -
28/12:00am 13.8 SSE 6 8 1020.2 - 0.0 - Partly cloudy 10 - - - -
 
Date/Time
EDT
Temp

°C
Wind Pressure Rain
since 9am
mm
Weather Cloud Vis
km
Sea
Height
m
Swell
Dir
 
Speed
knots
Gust
knots
hPa Trend Height
m
Period
s
Dir
27/11:30pm 14.8 ESE 7 10 1019.9 - 0.0 - Partly cloudy 10 - - - -
27/11:00pm 14.4 SSE 6 7 1019.8 - 0.0 - Cloudy 10 - - - -
27/10:30pm 13.8 SSE 6 8 1019.6 - 0.0 - Partly cloudy 10 - - - -
27/10:00pm 14.1 E 8 10 1019.1 - 0.0 - Partly cloudy 10 - - - -
27/09:30pm 14.9 ENE 11 13 1018.6 - 0.0 - Partly cloudy 10 - - - -
27/09:00pm 15.2 ENE 9 12 1018.2 - 0.0 - Cloudy 10 - - - -
27/08:30pm 15.8 NE 11 14 1017.7 - 0.0 - Partly cloudy 10 - - - -
27/08:00pm 16.5 NE 9 10 1017.2 - 0.0 - Partly cloudy 10 - - - -
27/07:30pm 16.6 NE 6 8 1016.8 - 0.0 - - 10 - - - -
27/07:00pm 17.4 N 4 6 1016.4 - 0.0 - - 10 - - - -
27/06:30pm 17.7 N 6 8 1016.0 - 0.0 - - 10 - - - -
27/06:00pm 17.8 NNW 7 9 1015.9 - 0.0 - - 10 - - - -
27/05:30pm 18.1 NW 8 11 1015.9 - 0.0 - - 10 - - - -
27/05:00pm 18.3 NNW 8 10 1015.8 - 0.0 - - 10 - - - -
27/04:30pm 18.4 NNW 8 10 1015.7 - 0.0 - - 10 - - - -
27/04:00pm 17.9 NNW 9 11 1015.9 - 0.0 - - 10 - - - -
27/03:30pm 18.7 N 11 13 1015.9 - 0.0 - - 10 - - - -
27/03:00pm 19.1 N 11 14 1015.8 - 0.0 - Mostly clear 10 - - - -
27/02:30pm 18.2 N 12 14 1015.9 - 0.0 - - 10 - - - -
27/02:00pm 19.0 NNE 12 15 1016.1 - 0.0 - Partly cloudy 10 - - - -
27/01:30pm 18.6 N 11 13 1016.3 - 0.0 - Partly cloudy 10 - - - -
27/01:00pm 18.3 N 11 13 1016.4 - 0.0 - Partly cloudy 10 - - - -
27/12:30pm 19.1 NNE 11 14 1016.5 - 0.0 - - 10 - - - -
27/12:00pm 17.8 NNE 8 11 1016.8 - 0.0 - - 10 - - - -

Other Formats:

Comma delimited format used in spreadsheet applications
http://www.bom.gov.au/fwo/IDV60701/IDV60701.95960.axf

JavaScript Object Notation format (JSON) in row-major order
http://www.bom.gov.au/fwo/IDV60701/IDV60701.95960.json